Flugwetter

[source: ADDS]
METAR
LOWL 201250Z VRB02KT 9999 FEW013 BKN014 M03/M06 Q1016 TEMPO BKN016 =
TAF LOWL 201115Z 2012/2112 09004KT 9999 BKN013 TXM02/2014Z TNM06/2107Z TEMPO 2012/2112 VRB02KT BKN017
TAF
TAF LOWL 201115Z 2012/2112 09004KT 9999 BKN013 TXM02/2014Z TNM06/2107Z TEMPO 2012/2112 VRB02KT BKN017 =